sensor_id;sensor_type;location;lat;lon;timestamp;temperature;humidity
33271;DHT22;53180;51.344;6.152;2022-07-05T00:01:54;17.10;74.60
33271;DHT22;53180;51.344;6.152;2022-07-05T00:04:22;17.00;74.40
33271;DHT22;53180;51.344;6.152;2022-07-05T00:06:51;17.00;74.90
33271;DHT22;53180;51.344;6.152;2022-07-05T00:09:36;17.00;74.70
33271;DHT22;53180;51.344;6.152;2022-07-05T00:12:05;17.00;74.50
33271;DHT22;53180;51.344;6.152;2022-07-05T00:14:35;16.90;75.00
33271;DHT22;53180;51.344;6.152;2022-07-05T00:17:04;16.90;75.10
33271;DHT22;53180;51.344;6.152;2022-07-05T00:19:32;16.90;74.70
33271;DHT22;53180;51.344;6.152;2022-07-05T00:22:01;16.90;74.90
33271;DHT22;53180;51.344;6.152;2022-07-05T00:24:29;16.80;74.80
33271;DHT22;53180;51.344;6.152;2022-07-05T00:26:58;16.90;74.50
33271;DHT22;53180;51.344;6.152;2022-07-05T00:29:26;16.80;74.70
33271;DHT22;53180;51.344;6.152;2022-07-05T00:31:56;16.80;74.90
33271;DHT22;53180;51.344;6.152;2022-07-05T00:34:24;16.70;75.00
33271;DHT22;53180;51.344;6.152;2022-07-05T00:36:52;16.70;74.10
33271;DHT22;53180;51.344;6.152;2022-07-05T00:39:21;16.70;75.30
33271;DHT22;53180;51.344;6.152;2022-07-05T00:41:49;16.70;75.20
33271;DHT22;53180;51.344;6.152;2022-07-05T00:44:28;16.60;75.40
33271;DHT22;53180;51.344;6.152;2022-07-05T00:46:58;16.60;75.90
33271;DHT22;53180;51.344;6.152;2022-07-05T00:49:26;16.60;76.30
33271;DHT22;53180;51.344;6.152;2022-07-05T00:51:55;16.50;76.70
33271;DHT22;53180;51.344;6.152;2022-07-05T00:54:43;16.50;76.50
33271;DHT22;53180;51.344;6.152;2022-07-05T00:57:12;16.50;77.00
33271;DHT22;53180;51.344;6.152;2022-07-05T00:59:40;16.40;77.30
33271;DHT22;53180;51.344;6.152;2022-07-05T01:02:10;16.40;77.10
33271;DHT22;53180;51.344;6.152;2022-07-05T01:04:45;16.40;77.10
33271;DHT22;53180;51.344;6.152;2022-07-05T01:07:16;16.30;77.00
33271;DHT22;53180;51.344;6.152;2022-07-05T01:09:46;16.20;77.90
33271;DHT22;53180;51.344;6.152;2022-07-05T01:12:15;16.20;78.10
33271;DHT22;53180;51.344;6.152;2022-07-05T01:14:44;16.10;77.70
33271;DHT22;53180;51.344;6.152;2022-07-05T01:17:15;16.00;77.90
33271;DHT22;53180;51.344;6.152;2022-07-05T01:19:44;16.00;78.50
33271;DHT22;53180;51.344;6.152;2022-07-05T01:22:16;16.00;78.50
33271;DHT22;53180;51.344;6.152;2022-07-05T01:24:49;16.00;78.50
33271;DHT22;53180;51.344;6.152;2022-07-05T01:27:18;16.00;78.60
33271;DHT22;53180;51.344;6.152;2022-07-05T01:29:47;15.90;78.10
33271;DHT22;53180;51.344;6.152;2022-07-05T01:32:15;15.80;78.70
33271;DHT22;53180;51.344;6.152;2022-07-05T01:34:44;15.70;78.70
33271;DHT22;53180;51.344;6.152;2022-07-05T01:37:13;15.70;79.10
33271;DHT22;53180;51.344;6.152;2022-07-05T01:39:41;15.60;79.50
33271;DHT22;53180;51.344;6.152;2022-07-05T01:42:11;15.60;79.40
33271;DHT22;53180;51.344;6.152;2022-07-05T01:44:39;15.60;80.00
33271;DHT22;53180;51.344;6.152;2022-07-05T01:47:08;15.60;79.90
33271;DHT22;53180;51.344;6.152;2022-07-05T01:49:40;15.50;79.60
33271;DHT22;53180;51.344;6.152;2022-07-05T01:52:12;15.50;80.10
33271;DHT22;53180;51.344;6.152;2022-07-05T01:54:41;15.50;79.80
33271;DHT22;53180;51.344;6.152;2022-07-05T01:57:12;15.50;79.80
33271;DHT22;53180;51.344;6.152;2022-07-05T01:59:40;15.40;79.70
33271;DHT22;53180;51.344;6.152;2022-07-05T02:02:09;15.30;79.60
33271;DHT22;53180;51.344;6.152;2022-07-05T02:04:37;15.30;80.20
33271;DHT22;53180;51.344;6.152;2022-07-05T02:07:06;15.30;80.20
33271;DHT22;53180;51.344;6.152;2022-07-05T02:09:34;15.30;80.40
33271;DHT22;53180;51.344;6.152;2022-07-05T02:12:04;15.20;80.10
33271;DHT22;53180;51.344;6.152;2022-07-05T02:14:34;15.20;80.10
33271;DHT22;53180;51.344;6.152;2022-07-05T02:17:03;15.10;80.20
33271;DHT22;53180;51.344;6.152;2022-07-05T02:19:31;15.10;80.40
33271;DHT22;53180;51.344;6.152;2022-07-05T02:21:59;15.00;81.00
33271;DHT22;53180;51.344;6.152;2022-07-05T02:24:28;15.00;81.10
33271;DHT22;53180;51.344;6.152;2022-07-05T02:26:56;14.90;81.10
33271;DHT22;53180;51.344;6.152;2022-07-05T02:29:25;14.80;80.00
33271;DHT22;53180;51.344;6.152;2022-07-05T02:31:55;14.70;80.00
33271;DHT22;53180;51.344;6.152;2022-07-05T02:34:24;14.50;80.20
33271;DHT22;53180;51.344;6.152;2022-07-05T02:36:52;14.50;81.00
33271;DHT22;53180;51.344;6.152;2022-07-05T02:39:21;14.30;81.30
33271;DHT22;53180;51.344;6.152;2022-07-05T02:41:49;14.40;81.40
33271;DHT22;53180;51.344;6.152;2022-07-05T02:44:17;14.40;81.40
33271;DHT22;53180;51.344;6.152;2022-07-05T02:57:45;14.20;82.10
33271;DHT22;53180;51.344;6.152;2022-07-05T03:03:04;14.20;80.80
33271;DHT22;53180;51.344;6.152;2022-07-05T03:05:32;14.00;80.30
33271;DHT22;53180;51.344;6.152;2022-07-05T03:08:01;13.80;80.80
33271;DHT22;53180;51.344;6.152;2022-07-05T03:18:23;13.70;81.10
33271;DHT22;53180;51.344;6.152;2022-07-05T03:21:47;13.50;80.90
33271;DHT22;53180;51.344;6.152;2022-07-05T03:27:20;13.30;81.70
33271;DHT22;53180;51.344;6.152;2022-07-05T03:29:49;13.30;81.90
33271;DHT22;53180;51.344;6.152;2022-07-05T03:32:17;13.30;82.10
33271;DHT22;53180;51.344;6.152;2022-07-05T03:34:47;13.20;82.50
33271;DHT22;53180;51.344;6.152;2022-07-05T03:37:15;13.20;83.10
33271;DHT22;53180;51.344;6.152;2022-07-05T03:39:43;13.20;83.00
33271;DHT22;53180;51.344;6.152;2022-07-05T03:42:12;13.20;82.80
33271;DHT22;53180;51.344;6.152;2022-07-05T03:44:40;13.20;83.10
33271;DHT22;53180;51.344;6.152;2022-07-05T03:47:09;13.30;83.30
33271;DHT22;53180;51.344;6.152;2022-07-05T03:49:37;13.30;83.40
33271;DHT22;53180;51.344;6.152;2022-07-05T03:52:07;13.30;84.10
33271;DHT22;53180;51.344;6.152;2022-07-05T03:54:35;13.30;84.10
33271;DHT22;53180;51.344;6.152;2022-07-05T03:57:04;13.30;84.00
33271;DHT22;53180;51.344;6.152;2022-07-05T03:59:32;13.30;84.10
33271;DHT22;53180;51.344;6.152;2022-07-05T04:02:00;13.30;83.70
33271;DHT22;53180;51.344;6.152;2022-07-05T04:04:29;13.20;82.80
33271;DHT22;53180;51.344;6.152;2022-07-05T04:06:57;13.10;83.00
33271;DHT22;53180;51.344;6.152;2022-07-05T04:09:27;13.10;83.40
33271;DHT22;53180;51.344;6.152;2022-07-05T04:11:55;13.10;83.70
33271;DHT22;53180;51.344;6.152;2022-07-05T04:14:24;13.20;84.10
33271;DHT22;53180;51.344;6.152;2022-07-05T04:16:52;13.20;84.20
33271;DHT22;53180;51.344;6.152;2022-07-05T04:19:20;13.10;84.30
33271;DHT22;53180;51.344;6.152;2022-07-05T04:21:48;13.20;84.80
33271;DHT22;53180;51.344;6.152;2022-07-05T04:24:17;13.20;84.80
33271;DHT22;53180;51.344;6.152;2022-07-05T04:26:46;13.30;84.90
33271;DHT22;53180;51.344;6.152;2022-07-05T04:29:15;13.40;85.20
33271;DHT22;53180;51.344;6.152;2022-07-05T04:31:43;13.60;85.50
33271;DHT22;53180;51.344;6.152;2022-07-05T04:34:11;13.80;85.40
33271;DHT22;53180;51.344;6.152;2022-07-05T04:36:40;14.10;85.00
33271;DHT22;53180;51.344;6.152;2022-07-05T04:39:08;14.30;84.80
33271;DHT22;53180;51.344;6.152;2022-07-05T04:41:37;14.50;84.50
33271;DHT22;53180;51.344;6.152;2022-07-05T04:44:07;14.70;84.30
33271;DHT22;53180;51.344;6.152;2022-07-05T04:46:35;14.90;83.90
33271;DHT22;53180;51.344;6.152;2022-07-05T04:49:04;14.90;83.30
33271;DHT22;53180;51.344;6.152;2022-07-05T04:51:32;15.10;83.60
33271;DHT22;53180;51.344;6.152;2022-07-05T04:54:00;15.30;83.20
33271;DHT22;53180;51.344;6.152;2022-07-05T04:56:29;15.30;82.50
33271;DHT22;53180;51.344;6.152;2022-07-05T04:58:57;15.30;82.30
33271;DHT22;53180;51.344;6.152;2022-07-05T05:01:27;15.50;81.90
33271;DHT22;53180;51.344;6.152;2022-07-05T05:03:55;15.70;81.40
33271;DHT22;53180;51.344;6.152;2022-07-05T05:06:23;16.10;81.40
33271;DHT22;53180;51.344;6.152;2022-07-05T05:08:51;16.20;80.60
33271;DHT22;53180;51.344;6.152;2022-07-05T05:11:20;16.00;79.90
33271;DHT22;53180;51.344;6.152;2022-07-05T05:13:48;16.00;80.60
33271;DHT22;53180;51.344;6.152;2022-07-05T05:16:16;16.00;80.10
33271;DHT22;53180;51.344;6.152;2022-07-05T05:18:46;16.00;80.20
33271;DHT22;53180;51.344;6.152;2022-07-05T05:21:14;16.00;79.80
33271;DHT22;53180;51.344;6.152;2022-07-05T05:23:43;16.20;80.30
33271;DHT22;53180;51.344;6.152;2022-07-05T05:26:11;16.30;79.40
33271;DHT22;53180;51.344;6.152;2022-07-05T05:28:40;16.40;77.40
33271;DHT22;53180;51.344;6.152;2022-07-05T05:31:08;16.40;77.60
33271;DHT22;53180;51.344;6.152;2022-07-05T05:33:37;16.50;77.60
33271;DHT22;53180;51.344;6.152;2022-07-05T05:36:07;16.50;76.80
33271;DHT22;53180;51.344;6.152;2022-07-05T05:38:36;16.50;77.40
33271;DHT22;53180;51.344;6.152;2022-07-05T05:41:04;16.60;76.40
33271;DHT22;53180;51.344;6.152;2022-07-05T05:43:33;16.70;75.90
33271;DHT22;53180;51.344;6.152;2022-07-05T05:46:02;16.80;76.30
33271;DHT22;53180;51.344;6.152;2022-07-05T05:48:31;16.90;76.20
33271;DHT22;53180;51.344;6.152;2022-07-05T05:50:59;17.10;76.70
33271;DHT22;53180;51.344;6.152;2022-07-05T05:53:29;17.20;75.90
33271;DHT22;53180;51.344;6.152;2022-07-05T05:55:58;17.20;75.10
33271;DHT22;53180;51.344;6.152;2022-07-05T05:58:26;17.30;75.00
33271;DHT22;53180;51.344;6.152;2022-07-05T06:00:54;17.30;74.70
33271;DHT22;53180;51.344;6.152;2022-07-05T06:03:24;17.30;73.80
33271;DHT22;53180;51.344;6.152;2022-07-05T06:05:53;17.40;74.50
33271;DHT22;53180;51.344;6.152;2022-07-05T06:08:22;17.60;72.90
33271;DHT22;53180;51.344;6.152;2022-07-05T06:10:52;17.60;72.50
33271;DHT22;53180;51.344;6.152;2022-07-05T06:13:28;17.60;72.60
33271;DHT22;53180;51.344;6.152;2022-07-05T06:15:56;17.70;72.10
33271;DHT22;53180;51.344;6.152;2022-07-05T06:18:24;17.80;71.30
33271;DHT22;53180;51.344;6.152;2022-07-05T06:20:53;17.80;72.00
33271;DHT22;53180;51.344;6.152;2022-07-05T06:23:21;17.90;72.10
33271;DHT22;53180;51.344;6.152;2022-07-05T06:25:49;18.00;71.70
33271;DHT22;53180;51.344;6.152;2022-07-05T06:28:19;18.00;71.20
33271;DHT22;53180;51.344;6.152;2022-07-05T06:30:48;18.10;71.80
33271;DHT22;53180;51.344;6.152;2022-07-05T06:33:16;18.10;72.60
33271;DHT22;53180;51.344;6.152;2022-07-05T06:35:44;18.20;72.30
33271;DHT22;53180;51.344;6.152;2022-07-05T06:38:12;18.20;71.70
33271;DHT22;53180;51.344;6.152;2022-07-05T06:40:41;18.20;72.30
33271;DHT22;53180;51.344;6.152;2022-07-05T06:43:12;18.30;72.60
33271;DHT22;53180;51.344;6.152;2022-07-05T06:45:42;18.50;70.90
33271;DHT22;53180;51.344;6.152;2022-07-05T06:48:11;18.50;70.10
33271;DHT22;53180;51.344;6.152;2022-07-05T06:50:41;18.60;71.70
33271;DHT22;53180;51.344;6.152;2022-07-05T06:53:11;18.70;70.70
33271;DHT22;53180;51.344;6.152;2022-07-05T06:55:39;18.70;70.30
33271;DHT22;53180;51.344;6.152;2022-07-05T06:58:19;18.80;70.00
33271;DHT22;53180;51.344;6.152;2022-07-05T07:00:48;19.00;69.50
33271;DHT22;53180;51.344;6.152;2022-07-05T07:03:37;19.10;69.00
33271;DHT22;53180;51.344;6.152;2022-07-05T07:06:25;19.10;68.40
33271;DHT22;53180;51.344;6.152;2022-07-05T07:08:54;19.20;67.90
33271;DHT22;53180;51.344;6.152;2022-07-05T07:11:39;19.20;67.80
33271;DHT22;53180;51.344;6.152;2022-07-05T07:14:07;19.20;66.90
33271;DHT22;53180;51.344;6.152;2022-07-05T07:16:37;19.30;66.10
33271;DHT22;53180;51.344;6.152;2022-07-05T07:19:05;19.20;65.30
33271;DHT22;53180;51.344;6.152;2022-07-05T07:21:37;19.20;66.90
33271;DHT22;53180;51.344;6.152;2022-07-05T07:24:07;19.30;68.10
33271;DHT22;53180;51.344;6.152;2022-07-05T07:26:36;19.40;66.70
33271;DHT22;53180;51.344;6.152;2022-07-05T07:29:22;19.50;67.30
33271;DHT22;53180;51.344;6.152;2022-07-05T07:31:52;19.60;66.30
33271;DHT22;53180;51.344;6.152;2022-07-05T07:34:20;19.60;66.60
33271;DHT22;53180;51.344;6.152;2022-07-05T07:36:49;19.70;66.90
33271;DHT22;53180;51.344;6.152;2022-07-05T07:39:17;19.70;65.90
33271;DHT22;53180;51.344;6.152;2022-07-05T07:41:46;19.80;65.60
33271;DHT22;53180;51.344;6.152;2022-07-05T07:44:15;19.80;65.40
33271;DHT22;53180;51.344;6.152;2022-07-05T07:46:44;19.80;64.60
33271;DHT22;53180;51.344;6.152;2022-07-05T07:49:14;19.80;65.30
33271;DHT22;53180;51.344;6.152;2022-07-05T07:51:43;19.90;64.60
33271;DHT22;53180;51.344;6.152;2022-07-05T07:54:12;19.90;62.60
33271;DHT22;53180;51.344;6.152;2022-07-05T07:56:40;20.00;64.10
33271;DHT22;53180;51.344;6.152;2022-07-05T07:59:09;20.00;62.80
33271;DHT22;53180;51.344;6.152;2022-07-05T08:01:38;20.00;63.80
33271;DHT22;53180;51.344;6.152;2022-07-05T08:04:13;20.30;62.60
33271;DHT22;53180;51.344;6.152;2022-07-05T08:06:42;20.20;62.00
33271;DHT22;53180;51.344;6.152;2022-07-05T08:09:11;20.10;62.80
33271;DHT22;53180;51.344;6.152;2022-07-05T08:11:44;20.20;62.40
33271;DHT22;53180;51.344;6.152;2022-07-05T08:14:14;20.30;62.20
33271;DHT22;53180;51.344;6.152;2022-07-05T08:16:43;20.40;60.80
33271;DHT22;53180;51.344;6.152;2022-07-05T08:19:19;20.60;62.60
33271;DHT22;53180;51.344;6.152;2022-07-05T08:22:20;20.80;61.90
33271;DHT22;53180;51.344;6.152;2022-07-05T08:24:49;20.80;61.30
33271;DHT22;53180;51.344;6.152;2022-07-05T08:27:18;20.80;61.40
33271;DHT22;53180;51.344;6.152;2022-07-05T08:29:46;20.90;60.40
33271;DHT22;53180;51.344;6.152;2022-07-05T08:32:15;20.90;61.10
33271;DHT22;53180;51.344;6.152;2022-07-05T08:34:44;20.90;60.90
33271;DHT22;53180;51.344;6.152;2022-07-05T08:37:15;21.10;58.90
33271;DHT22;53180;51.344;6.152;2022-07-05T08:39:43;21.30;59.00
33271;DHT22;53180;51.344;6.152;2022-07-05T08:42:12;21.50;59.80
33271;DHT22;53180;51.344;6.152;2022-07-05T08:44:42;21.50;58.70
33271;DHT22;53180;51.344;6.152;2022-07-05T08:47:12;21.60;58.90
33271;DHT22;53180;51.344;6.152;2022-07-05T08:49:44;21.80;57.20
33271;DHT22;53180;51.344;6.152;2022-07-05T08:52:15;22.00;56.80
33271;DHT22;53180;51.344;6.152;2022-07-05T08:54:49;22.00;56.00
33271;DHT22;53180;51.344;6.152;2022-07-05T08:57:19;22.00;56.70
33271;DHT22;53180;51.344;6.152;2022-07-05T08:59:47;22.10;56.90
33271;DHT22;53180;51.344;6.152;2022-07-05T09:02:16;22.00;55.50
33271;DHT22;53180;51.344;6.152;2022-07-05T09:04:50;22.00;55.40
33271;DHT22;53180;51.344;6.152;2022-07-05T09:07:20;22.00;54.80
33271;DHT22;53180;51.344;6.152;2022-07-05T09:09:50;22.00;54.70
33271;DHT22;53180;51.344;6.152;2022-07-05T09:12:19;22.00;54.00
33271;DHT22;53180;51.344;6.152;2022-07-05T09:14:52;21.90;54.60
33271;DHT22;53180;51.344;6.152;2022-07-05T09:17:21;21.80;54.70
33271;DHT22;53180;51.344;6.152;2022-07-05T09:20:09;21.80;55.20
33271;DHT22;53180;51.344;6.152;2022-07-05T09:22:50;22.00;54.70
33271;DHT22;53180;51.344;6.152;2022-07-05T09:25:22;22.00;54.20
33271;DHT22;53180;51.344;6.152;2022-07-05T09:27:54;22.00;54.20
33271;DHT22;53180;51.344;6.152;2022-07-05T09:30:28;22.10;55.90
33271;DHT22;53180;51.344;6.152;2022-07-05T09:33:05;22.20;56.00
33271;DHT22;53180;51.344;6.152;2022-07-05T09:35:37;22.30;55.50
33271;DHT22;53180;51.344;6.152;2022-07-05T09:38:17;22.30;53.60
33271;DHT22;53180;51.344;6.152;2022-07-05T09:40:47;22.40;55.10
33271;DHT22;53180;51.344;6.152;2022-07-05T09:43:17;22.50;54.70
33271;DHT22;53180;51.344;6.152;2022-07-05T09:45:51;22.60;55.70
33271;DHT22;53180;51.344;6.152;2022-07-05T09:48:24;22.80;54.30
33271;DHT22;53180;51.344;6.152;2022-07-05T09:51:07;23.10;53.70
33271;DHT22;53180;51.344;6.152;2022-07-05T09:53:58;23.10;54.20
33271;DHT22;53180;51.344;6.152;2022-07-05T09:56:43;23.30;52.50
33271;DHT22;53180;51.344;6.152;2022-07-05T09:59:14;23.60;52.80
33271;DHT22;53180;51.344;6.152;2022-07-05T10:01:43;24.00;50.60
33271;DHT22;53180;51.344;6.152;2022-07-05T10:04:12;24.20;50.10
33271;DHT22;53180;51.344;6.152;2022-07-05T10:06:42;24.30;49.60
33271;DHT22;53180;51.344;6.152;2022-07-05T10:09:11;24.50;51.20
33271;DHT22;53180;51.344;6.152;2022-07-05T10:11:42;24.40;49.20
33271;DHT22;53180;51.344;6.152;2022-07-05T10:14:14;24.30;48.20
33271;DHT22;53180;51.344;6.152;2022-07-05T10:16:59;23.90;49.10
33271;DHT22;53180;51.344;6.152;2022-07-05T10:19:33;23.70;49.80
33271;DHT22;53180;51.344;6.152;2022-07-05T10:22:05;23.50;49.00
33271;DHT22;53180;51.344;6.152;2022-07-05T10:24:45;23.20;50.40
33271;DHT22;53180;51.344;6.152;2022-07-05T10:27:15;23.10;51.60
33271;DHT22;53180;51.344;6.152;2022-07-05T10:29:45;23.40;50.20
33271;DHT22;53180;51.344;6.152;2022-07-05T10:32:14;23.80;49.70
33271;DHT22;53180;51.344;6.152;2022-07-05T10:34:44;24.10;49.60
33271;DHT22;53180;51.344;6.152;2022-07-05T10:37:22;23.90;47.60
33271;DHT22;53180;51.344;6.152;2022-07-05T10:39:54;23.50;48.00
33271;DHT22;53180;51.344;6.152;2022-07-05T10:42:24;23.40;49.20
33271;DHT22;53180;51.344;6.152;2022-07-05T10:44:54;23.30;48.20
33271;DHT22;53180;51.344;6.152;2022-07-05T10:47:22;23.30;49.90
33271;DHT22;53180;51.344;6.152;2022-07-05T10:50:05;23.30;50.70
33271;DHT22;53180;51.344;6.152;2022-07-05T10:52:35;23.50;49.90
33271;DHT22;53180;51.344;6.152;2022-07-05T10:55:20;23.90;49.90
33271;DHT22;53180;51.344;6.152;2022-07-05T10:58:24;24.30;48.90
33271;DHT22;53180;51.344;6.152;2022-07-05T11:07:03;24.10;45.40
33271;DHT22;53180;51.344;6.152;2022-07-05T11:09:33;24.10;46.10
33271;DHT22;53180;51.344;6.152;2022-07-05T11:12:08;24.40;46.20
33271;DHT22;53180;51.344;6.152;2022-07-05T11:15:07;24.40;47.60
33271;DHT22;53180;51.344;6.152;2022-07-05T11:17:37;24.80;45.50
33271;DHT22;53180;51.344;6.152;2022-07-05T11:20:28;25.10;47.10
33271;DHT22;53180;51.344;6.152;2022-07-05T11:25:45;25.10;44.20
33271;DHT22;53180;51.344;6.152;2022-07-05T11:28:18;25.00;44.60
33271;DHT22;53180;51.344;6.152;2022-07-05T11:30:52;24.90;45.20
33271;DHT22;53180;51.344;6.152;2022-07-05T11:33:38;24.70;43.40
33271;DHT22;53180;51.344;6.152;2022-07-05T11:36:25;24.70;44.90
33271;DHT22;53180;51.344;6.152;2022-07-05T11:39:14;24.60;45.30
33271;DHT22;53180;51.344;6.152;2022-07-05T11:41:46;24.50;44.60
33271;DHT22;53180;51.344;6.152;2022-07-05T11:44:16;24.70;44.70
33271;DHT22;53180;51.344;6.152;2022-07-05T11:46:45;25.00;46.00
33271;DHT22;53180;51.344;6.152;2022-07-05T11:49:19;25.10;43.90
33271;DHT22;53180;51.344;6.152;2022-07-05T11:51:56;25.20;42.90
33271;DHT22;53180;51.344;6.152;2022-07-05T11:54:26;25.30;44.50
33271;DHT22;53180;51.344;6.152;2022-07-05T11:56:59;25.40;43.70
33271;DHT22;53180;51.344;6.152;2022-07-05T11:59:28;25.50;44.70
33271;DHT22;53180;51.344;6.152;2022-07-05T12:01:56;25.70;43.90
33271;DHT22;53180;51.344;6.152;2022-07-05T12:04:26;25.50;42.30
33271;DHT22;53180;51.344;6.152;2022-07-05T12:06:56;25.60;42.30
33271;DHT22;53180;51.344;6.152;2022-07-05T12:09:26;25.80;43.80
33271;DHT22;53180;51.344;6.152;2022-07-05T12:12:19;26.10;41.50
33271;DHT22;53180;51.344;6.152;2022-07-05T12:15:06;26.20;41.60
33271;DHT22;53180;51.344;6.152;2022-07-05T12:17:36;26.20;42.00
33271;DHT22;53180;51.344;6.152;2022-07-05T12:20:08;26.30;40.50
33271;DHT22;53180;51.344;6.152;2022-07-05T12:22:39;26.30;40.70
33271;DHT22;53180;51.344;6.152;2022-07-05T12:25:10;26.10;39.70
33271;DHT22;53180;51.344;6.152;2022-07-05T12:27:43;25.80;41.70
33271;DHT22;53180;51.344;6.152;2022-07-05T12:30:12;25.60;41.50
33271;DHT22;53180;51.344;6.152;2022-07-05T12:32:54;25.60;41.80
33271;DHT22;53180;51.344;6.152;2022-07-05T12:35:28;25.90;42.40
33271;DHT22;53180;51.344;6.152;2022-07-05T12:38:05;25.90;42.90
33271;DHT22;53180;51.344;6.152;2022-07-05T12:40:37;26.10;44.30
33271;DHT22;53180;51.344;6.152;2022-07-05T12:43:09;26.30;42.90
33271;DHT22;53180;51.344;6.152;2022-07-05T12:45:40;26.20;43.20
33271;DHT22;53180;51.344;6.152;2022-07-05T12:48:09;26.20;43.70
33271;DHT22;53180;51.344;6.152;2022-07-05T12:50:47;26.20;42.70
33271;DHT22;53180;51.344;6.152;2022-07-05T12:53:44;26.20;44.20
33271;DHT22;53180;51.344;6.152;2022-07-05T12:56:31;26.20;42.80
33271;DHT22;53180;51.344;6.152;2022-07-05T12:59:38;26.00;44.50
33271;DHT22;53180;51.344;6.152;2022-07-05T13:02:07;25.50;43.70
33271;DHT22;53180;51.344;6.152;2022-07-05T13:04:37;25.30;43.30
33271;DHT22;53180;51.344;6.152;2022-07-05T13:07:09;25.10;43.50
33271;DHT22;53180;51.344;6.152;2022-07-05T13:10:17;24.80;44.00
33271;DHT22;53180;51.344;6.152;2022-07-05T13:12:46;24.60;45.50
33271;DHT22;53180;51.344;6.152;2022-07-05T13:15:17;24.40;47.10
33271;DHT22;53180;51.344;6.152;2022-07-05T13:17:46;24.10;48.80
33271;DHT22;53180;51.344;6.152;2022-07-05T13:20:16;23.90;46.90
33271;DHT22;53180;51.344;6.152;2022-07-05T13:22:47;23.90;48.70
33271;DHT22;53180;51.344;6.152;2022-07-05T13:25:16;23.70;48.10
33271;DHT22;53180;51.344;6.152;2022-07-05T13:27:44;23.80;49.50
33271;DHT22;53180;51.344;6.152;2022-07-05T13:30:13;24.00;50.30
33271;DHT22;53180;51.344;6.152;2022-07-05T13:32:43;24.30;48.80
33271;DHT22;53180;51.344;6.152;2022-07-05T13:35:11;24.60;49.80
33271;DHT22;53180;51.344;6.152;2022-07-05T13:37:39;24.80;49.00
33271;DHT22;53180;51.344;6.152;2022-07-05T13:40:09;25.00;48.80
33271;DHT22;53180;51.344;6.152;2022-07-05T13:42:38;25.20;46.60
33271;DHT22;53180;51.344;6.152;2022-07-05T13:45:07;25.40;46.40
33271;DHT22;53180;51.344;6.152;2022-07-05T13:47:36;25.30;46.70
33271;DHT22;53180;51.344;6.152;2022-07-05T13:50:06;25.30;47.70
33271;DHT22;53180;51.344;6.152;2022-07-05T13:52:53;25.10;45.70
33271;DHT22;53180;51.344;6.152;2022-07-05T13:55:21;24.90;46.90
33271;DHT22;53180;51.344;6.152;2022-07-05T13:57:49;24.80;47.60
33271;DHT22;53180;51.344;6.152;2022-07-05T14:00:18;24.80;46.60
33271;DHT22;53180;51.344;6.152;2022-07-05T14:02:46;25.00;46.50
33271;DHT22;53180;51.344;6.152;2022-07-05T14:05:16;25.20;46.70
33271;DHT22;53180;51.344;6.152;2022-07-05T14:07:47;25.30;45.50
33271;DHT22;53180;51.344;6.152;2022-07-05T14:10:15;25.20;46.20
33271;DHT22;53180;51.344;6.152;2022-07-05T14:12:44;25.20;45.70
33271;DHT22;53180;51.344;6.152;2022-07-05T14:15:12;25.20;47.60
33271;DHT22;53180;51.344;6.152;2022-07-05T14:17:41;25.30;45.40
33271;DHT22;53180;51.344;6.152;2022-07-05T14:20:09;25.30;46.60
33271;DHT22;53180;51.344;6.152;2022-07-05T14:22:39;25.20;45.60
33271;DHT22;53180;51.344;6.152;2022-07-05T14:25:07;24.90;46.40
33271;DHT22;53180;51.344;6.152;2022-07-05T14:27:36;24.80;45.90
33271;DHT22;53180;51.344;6.152;2022-07-05T14:30:06;24.60;46.60
33271;DHT22;53180;51.344;6.152;2022-07-05T14:32:36;24.40;46.70
33271;DHT22;53180;51.344;6.152;2022-07-05T14:35:14;24.30;46.50
33271;DHT22;53180;51.344;6.152;2022-07-05T14:37:43;24.20;47.40
33271;DHT22;53180;51.344;6.152;2022-07-05T14:40:12;24.20;46.40
33271;DHT22;53180;51.344;6.152;2022-07-05T14:42:41;24.00;47.50
33271;DHT22;53180;51.344;6.152;2022-07-05T14:45:09;23.90;47.70
33271;DHT22;53180;51.344;6.152;2022-07-05T14:47:38;23.80;47.30
33271;DHT22;53180;51.344;6.152;2022-07-05T14:50:06;23.80;47.70
33271;DHT22;53180;51.344;6.152;2022-07-05T14:52:35;23.80;47.80
33271;DHT22;53180;51.344;6.152;2022-07-05T14:55:06;23.70;48.30
33271;DHT22;53180;51.344;6.152;2022-07-05T14:57:35;23.50;49.00
33271;DHT22;53180;51.344;6.152;2022-07-05T15:00:06;23.50;48.20
33271;DHT22;53180;51.344;6.152;2022-07-05T15:02:37;23.30;47.00
33271;DHT22;53180;51.344;6.152;2022-07-05T15:05:06;23.20;48.40
33271;DHT22;53180;51.344;6.152;2022-07-05T15:07:37;23.10;47.90
33271;DHT22;53180;51.344;6.152;2022-07-05T15:10:09;23.10;48.20
33271;DHT22;53180;51.344;6.152;2022-07-05T15:12:37;23.00;48.30
33271;DHT22;53180;51.344;6.152;2022-07-05T15:15:07;23.00;48.70
33271;DHT22;53180;51.344;6.152;2022-07-05T15:17:36;22.80;49.50
33271;DHT22;53180;51.344;6.152;2022-07-05T15:20:05;22.60;49.40
33271;DHT22;53180;51.344;6.152;2022-07-05T15:22:34;22.60;49.80
33271;DHT22;53180;51.344;6.152;2022-07-05T15:25:02;22.70;50.20
33271;DHT22;53180;51.344;6.152;2022-07-05T15:27:32;22.80;50.60
33271;DHT22;53180;51.344;6.152;2022-07-05T15:30:01;23.00;49.60
33271;DHT22;53180;51.344;6.152;2022-07-05T15:32:29;23.20;50.80
33271;DHT22;53180;51.344;6.152;2022-07-05T15:34:58;23.30;49.90
33271;DHT22;53180;51.344;6.152;2022-07-05T15:37:26;23.30;49.20
33271;DHT22;53180;51.344;6.152;2022-07-05T15:39:54;23.30;49.90
33271;DHT22;53180;51.344;6.152;2022-07-05T15:42:25;23.20;49.10
33271;DHT22;53180;51.344;6.152;2022-07-05T15:44:54;23.20;49.30
33271;DHT22;53180;51.344;6.152;2022-07-05T15:47:29;23.20;49.40
33271;DHT22;53180;51.344;6.152;2022-07-05T15:49:57;23.00;49.60
33271;DHT22;53180;51.344;6.152;2022-07-05T15:52:25;22.80;50.00
33271;DHT22;53180;51.344;6.152;2022-07-05T15:54:54;22.70;50.10
33271;DHT22;53180;51.344;6.152;2022-07-05T15:57:22;22.80;50.10
33271;DHT22;53180;51.344;6.152;2022-07-05T15:59:54;22.70;50.30
33271;DHT22;53180;51.344;6.152;2022-07-05T16:02:23;22.60;50.80
33271;DHT22;53180;51.344;6.152;2022-07-05T16:04:52;22.50;50.50
33271;DHT22;53180;51.344;6.152;2022-07-05T16:07:20;22.40;51.20
33271;DHT22;53180;51.344;6.152;2022-07-05T16:09:49;22.30;50.90
33271;DHT22;53180;51.344;6.152;2022-07-05T16:12:39;22.30;50.50
33271;DHT22;53180;51.344;6.152;2022-07-05T16:15:09;22.30;49.60
33271;DHT22;53180;51.344;6.152;2022-07-05T16:17:58;22.30;50.50
33271;DHT22;53180;51.344;6.152;2022-07-05T16:20:27;22.20;49.30
33271;DHT22;53180;51.344;6.152;2022-07-05T16:22:55;22.20;49.50
33271;DHT22;53180;51.344;6.152;2022-07-05T16:25:24;22.20;50.20
33271;DHT22;53180;51.344;6.152;2022-07-05T16:27:53;22.20;50.00
33271;DHT22;53180;51.344;6.152;2022-07-05T16:30:23;22.30;50.50